Terminal Aerodrome Forecast
Issued by NWS

Home | Current Version | Previous Version | Text Only | Print | Product List | Glossary On
Versions: 1 2 3 4 5 6 7 8 9 10 11 12 13 14 15 16 17 18
000
FTUS41 KCLE 220335 AAA
TAFFDY
TAF AMD
KFDY 220335Z 2204/2224 18005KT 6SM BR OVC012
      TEMPO 2204/2207 3SM -SHRA BR OVC006
     FM220700 18007KT 6SM BR OVC006 WS020/21040KT
      TEMPO 2207/2210 3SM -SHRA BR
     FM221000 18010KT P6SM OVC015
     FM221300 18012G20KT P6SM OVC035 WS020/21035KT
     FM222100 18012KT 3SM -RA BR OVC012=

USA.gov is the U.S. government's official web portal to all federal, state and local government web resources and services.